sensor_id;sensor_type;location;lat;lon;timestamp;temperature;humidity
7588;DHT22;3835;48.850;8.938;2023-11-21T00:01:02;6.50;99.90
7588;DHT22;3835;48.850;8.938;2023-11-21T00:03:29;6.60;99.90
7588;DHT22;3835;48.850;8.938;2023-11-21T00:05:56;6.60;99.90
7588;DHT22;3835;48.850;8.938;2023-11-21T00:08:24;6.60;99.90
7588;DHT22;3835;48.850;8.938;2023-11-21T00:10:51;6.60;99.90
7588;DHT22;3835;48.850;8.938;2023-11-21T00:13:18;6.60;99.90
7588;DHT22;3835;48.850;8.938;2023-11-21T00:15:45;6.60;99.90
7588;DHT22;3835;48.850;8.938;2023-11-21T00:18:11;6.70;99.90
7588;DHT22;3835;48.850;8.938;2023-11-21T00:20:39;6.70;99.90
7588;DHT22;3835;48.850;8.938;2023-11-21T00:23:06;6.80;99.90
7588;DHT22;3835;48.850;8.938;2023-11-21T00:25:37;6.80;99.90
7588;DHT22;3835;48.850;8.938;2023-11-21T00:28:04;6.80;99.90
7588;DHT22;3835;48.850;8.938;2023-11-21T00:30:31;6.90;99.90
7588;DHT22;3835;48.850;8.938;2023-11-21T00:32:58;6.90;99.90
7588;DHT22;3835;48.850;8.938;2023-11-21T00:35:25;6.90;99.90
7588;DHT22;3835;48.850;8.938;2023-11-21T00:37:52;6.90;99.90
7588;DHT22;3835;48.850;8.938;2023-11-21T00:40:19;6.90;99.90
7588;DHT22;3835;48.850;8.938;2023-11-21T00:42:47;7.00;99.90
7588;DHT22;3835;48.850;8.938;2023-11-21T00:45:14;7.10;99.90
7588;DHT22;3835;48.850;8.938;2023-11-21T00:47:41;7.10;99.90
7588;DHT22;3835;48.850;8.938;2023-11-21T00:50:09;7.10;99.90
7588;DHT22;3835;48.850;8.938;2023-11-21T00:52:36;7.10;99.90
7588;DHT22;3835;48.850;8.938;2023-11-21T00:55:04;7.10;99.90
7588;DHT22;3835;48.850;8.938;2023-11-21T00:57:33;7.10;99.90
7588;DHT22;3835;48.850;8.938;2023-11-21T01:00:01;7.10;99.90
7588;DHT22;3835;48.850;8.938;2023-11-21T01:02:32;7.20;99.90
7588;DHT22;3835;48.850;8.938;2023-11-21T01:05:01;7.20;99.90
7588;DHT22;3835;48.850;8.938;2023-11-21T01:07:29;7.20;99.90
7588;DHT22;3835;48.850;8.938;2023-11-21T01:09:56;7.30;99.90
7588;DHT22;3835;48.850;8.938;2023-11-21T01:12:23;7.20;99.90
7588;DHT22;3835;48.850;8.938;2023-11-21T01:14:50;7.30;99.90
7588;DHT22;3835;48.850;8.938;2023-11-21T01:17:19;7.20;99.90
7588;DHT22;3835;48.850;8.938;2023-11-21T01:19:48;7.20;99.90
7588;DHT22;3835;48.850;8.938;2023-11-21T01:22:15;7.20;99.90
7588;DHT22;3835;48.850;8.938;2023-11-21T01:24:42;7.20;99.90
7588;DHT22;3835;48.850;8.938;2023-11-21T01:27:08;7.10;99.90
7588;DHT22;3835;48.850;8.938;2023-11-21T01:29:35;7.10;99.90
7588;DHT22;3835;48.850;8.938;2023-11-21T01:32:02;7.10;99.90
7588;DHT22;3835;48.850;8.938;2023-11-21T01:34:31;7.20;99.90
7588;DHT22;3835;48.850;8.938;2023-11-21T01:36:58;7.20;99.90
7588;DHT22;3835;48.850;8.938;2023-11-21T01:39:25;7.20;99.90
7588;DHT22;3835;48.850;8.938;2023-11-21T01:41:52;7.20;99.90
7588;DHT22;3835;48.850;8.938;2023-11-21T01:44:19;7.20;99.90
7588;DHT22;3835;48.850;8.938;2023-11-21T01:46:46;7.20;99.90
7588;DHT22;3835;48.850;8.938;2023-11-21T01:49:13;7.20;99.90
7588;DHT22;3835;48.850;8.938;2023-11-21T01:51:43;7.10;99.90
7588;DHT22;3835;48.850;8.938;2023-11-21T01:54:10;7.30;99.90
7588;DHT22;3835;48.850;8.938;2023-11-21T01:56:37;7.30;99.90
7588;DHT22;3835;48.850;8.938;2023-11-21T01:59:05;7.20;99.90
7588;DHT22;3835;48.850;8.938;2023-11-21T02:01:33;7.20;99.90
7588;DHT22;3835;48.850;8.938;2023-11-21T02:03:59;7.20;99.90
7588;DHT22;3835;48.850;8.938;2023-11-21T02:06:27;7.20;99.90
7588;DHT22;3835;48.850;8.938;2023-11-21T02:08:58;7.30;99.90
7588;DHT22;3835;48.850;8.938;2023-11-21T02:11:25;7.30;99.90
7588;DHT22;3835;48.850;8.938;2023-11-21T02:13:52;7.30;99.90
7588;DHT22;3835;48.850;8.938;2023-11-21T02:16:20;7.50;99.90
7588;DHT22;3835;48.850;8.938;2023-11-21T02:18:47;7.10;99.90
7588;DHT22;3835;48.850;8.938;2023-11-21T02:21:15;7.20;99.90
7588;DHT22;3835;48.850;8.938;2023-11-21T02:23:43;7.20;99.90
7588;DHT22;3835;48.850;8.938;2023-11-21T02:26:12;7.20;99.90
7588;DHT22;3835;48.850;8.938;2023-11-21T02:28:39;7.20;99.90
7588;DHT22;3835;48.850;8.938;2023-11-21T02:31:06;7.20;99.90
7588;DHT22;3835;48.850;8.938;2023-11-21T02:33:33;7.20;99.90
7588;DHT22;3835;48.850;8.938;2023-11-21T02:36:00;7.20;99.90
7588;DHT22;3835;48.850;8.938;2023-11-21T02:38:27;7.20;99.90
7588;DHT22;3835;48.850;8.938;2023-11-21T02:40:57;7.20;99.90
7588;DHT22;3835;48.850;8.938;2023-11-21T02:43:24;7.20;99.90
7588;DHT22;3835;48.850;8.938;2023-11-21T02:45:51;7.10;99.90
7588;DHT22;3835;48.850;8.938;2023-11-21T02:48:18;7.20;99.90
7588;DHT22;3835;48.850;8.938;2023-11-21T02:50:45;7.00;99.90
7588;DHT22;3835;48.850;8.938;2023-11-21T02:53:12;7.10;99.90
7588;DHT22;3835;48.850;8.938;2023-11-21T02:55:40;7.10;99.90
7588;DHT22;3835;48.850;8.938;2023-11-21T02:58:08;7.30;99.90
7588;DHT22;3835;48.850;8.938;2023-11-21T03:00:35;7.10;99.90
7588;DHT22;3835;48.850;8.938;2023-11-21T03:03:02;7.40;99.90
7588;DHT22;3835;48.850;8.938;2023-11-21T03:05:29;7.10;99.90
7588;DHT22;3835;48.850;8.938;2023-11-21T03:07:56;7.30;99.90
7588;DHT22;3835;48.850;8.938;2023-11-21T03:10:23;7.10;99.90
7588;DHT22;3835;48.850;8.938;2023-11-21T03:12:50;7.00;99.90
7588;DHT22;3835;48.850;8.938;2023-11-21T03:15:18;7.10;99.90
7588;DHT22;3835;48.850;8.938;2023-11-21T03:17:45;7.20;99.90
7588;DHT22;3835;48.850;8.938;2023-11-21T03:20:14;7.20;99.90
7588;DHT22;3835;48.850;8.938;2023-11-21T03:22:42;7.20;99.90
7588;DHT22;3835;48.850;8.938;2023-11-21T03:25:09;7.20;99.90
7588;DHT22;3835;48.850;8.938;2023-11-21T03:27:37;7.30;99.90
7588;DHT22;3835;48.850;8.938;2023-11-21T03:30:05;7.30;99.90
7588;DHT22;3835;48.850;8.938;2023-11-21T03:32:35;7.30;99.90
7588;DHT22;3835;48.850;8.938;2023-11-21T03:35:02;7.80;99.90
7588;DHT22;3835;48.850;8.938;2023-11-21T03:37:29;7.30;99.90
7588;DHT22;3835;48.850;8.938;2023-11-21T03:39:56;7.40;99.90
7588;DHT22;3835;48.850;8.938;2023-11-21T03:42:23;7.40;99.90
7588;DHT22;3835;48.850;8.938;2023-11-21T03:44:52;7.30;99.90
7588;DHT22;3835;48.850;8.938;2023-11-21T03:47:19;7.40;99.90
7588;DHT22;3835;48.850;8.938;2023-11-21T03:49:47;7.40;99.90
7588;DHT22;3835;48.850;8.938;2023-11-21T03:52:14;7.30;99.90
7588;DHT22;3835;48.850;8.938;2023-11-21T03:54:41;7.30;99.90
7588;DHT22;3835;48.850;8.938;2023-11-21T03:57:08;7.50;99.90
7588;DHT22;3835;48.850;8.938;2023-11-21T03:59:35;7.30;99.90
7588;DHT22;3835;48.850;8.938;2023-11-21T04:02:03;7.30;99.90
7588;DHT22;3835;48.850;8.938;2023-11-21T04:04:30;7.30;99.90
7588;DHT22;3835;48.850;8.938;2023-11-21T04:06:59;7.30;99.90
7588;DHT22;3835;48.850;8.938;2023-11-21T04:09:25;7.20;99.90
7588;DHT22;3835;48.850;8.938;2023-11-21T04:11:53;7.20;99.90
7588;DHT22;3835;48.850;8.938;2023-11-21T04:14:21;7.00;99.90
7588;DHT22;3835;48.850;8.938;2023-11-21T04:16:48;7.00;99.90
7588;DHT22;3835;48.850;8.938;2023-11-21T04:19:15;7.10;99.90
7588;DHT22;3835;48.850;8.938;2023-11-21T04:21:43;7.10;99.90
7588;DHT22;3835;48.850;8.938;2023-11-21T04:24:11;7.10;99.90
7588;DHT22;3835;48.850;8.938;2023-11-21T04:26:38;7.10;99.90
7588;DHT22;3835;48.850;8.938;2023-11-21T04:29:05;7.00;99.90
7588;DHT22;3835;48.850;8.938;2023-11-21T04:31:32;6.90;99.90
7588;DHT22;3835;48.850;8.938;2023-11-21T04:33:59;6.90;99.90
7588;DHT22;3835;48.850;8.938;2023-11-21T04:36:26;6.90;99.90
7588;DHT22;3835;48.850;8.938;2023-11-21T04:38:53;6.90;99.90
7588;DHT22;3835;48.850;8.938;2023-11-21T04:41:22;6.80;99.90
7588;DHT22;3835;48.850;8.938;2023-11-21T04:43:48;6.80;99.90
7588;DHT22;3835;48.850;8.938;2023-11-21T04:46:15;6.80;99.90
7588;DHT22;3835;48.850;8.938;2023-11-21T04:48:43;6.70;99.90
7588;DHT22;3835;48.850;8.938;2023-11-21T04:51:09;6.80;99.90
7588;DHT22;3835;48.850;8.938;2023-11-21T04:53:37;6.60;99.90
7588;DHT22;3835;48.850;8.938;2023-11-21T04:56:05;6.70;99.90
7588;DHT22;3835;48.850;8.938;2023-11-21T04:58:33;6.70;99.90
7588;DHT22;3835;48.850;8.938;2023-11-21T05:01:01;6.60;99.90
7588;DHT22;3835;48.850;8.938;2023-11-21T05:03:28;6.50;99.90
7588;DHT22;3835;48.850;8.938;2023-11-21T05:05:56;6.50;99.90
7588;DHT22;3835;48.850;8.938;2023-11-21T05:08:23;6.40;99.90
7588;DHT22;3835;48.850;8.938;2023-11-21T05:10:51;6.40;99.90
7588;DHT22;3835;48.850;8.938;2023-11-21T05:13:19;6.30;99.90
7588;DHT22;3835;48.850;8.938;2023-11-21T05:15:47;6.30;99.90
7588;DHT22;3835;48.850;8.938;2023-11-21T05:18:14;6.20;99.90
7588;DHT22;3835;48.850;8.938;2023-11-21T05:20:41;6.20;99.90
7588;DHT22;3835;48.850;8.938;2023-11-21T05:23:08;6.20;99.90
7588;DHT22;3835;48.850;8.938;2023-11-21T05:25:34;6.30;99.90
7588;DHT22;3835;48.850;8.938;2023-11-21T05:28:01;6.30;99.90
7588;DHT22;3835;48.850;8.938;2023-11-21T05:30:29;6.30;99.90
7588;DHT22;3835;48.850;8.938;2023-11-21T05:32:58;6.30;99.90
7588;DHT22;3835;48.850;8.938;2023-11-21T05:35:24;6.30;99.90
7588;DHT22;3835;48.850;8.938;2023-11-21T05:37:52;6.50;99.90
7588;DHT22;3835;48.850;8.938;2023-11-21T05:40:20;6.30;99.90
7588;DHT22;3835;48.850;8.938;2023-11-21T05:42:47;6.40;99.90
7588;DHT22;3835;48.850;8.938;2023-11-21T05:45:14;6.40;99.90
7588;DHT22;3835;48.850;8.938;2023-11-21T05:47:44;6.50;99.90
7588;DHT22;3835;48.850;8.938;2023-11-21T05:50:13;6.40;99.90
7588;DHT22;3835;48.850;8.938;2023-11-21T05:52:41;6.40;99.90
7588;DHT22;3835;48.850;8.938;2023-11-21T05:55:08;6.50;99.90
7588;DHT22;3835;48.850;8.938;2023-11-21T05:57:36;6.50;99.90
7588;DHT22;3835;48.850;8.938;2023-11-21T06:00:04;6.50;99.90
7588;DHT22;3835;48.850;8.938;2023-11-21T06:02:37;6.40;99.90
7588;DHT22;3835;48.850;8.938;2023-11-21T06:05:05;6.40;99.90
7588;DHT22;3835;48.850;8.938;2023-11-21T06:07:33;6.30;99.90
7588;DHT22;3835;48.850;8.938;2023-11-21T06:10:01;6.30;99.90
7588;DHT22;3835;48.850;8.938;2023-11-21T06:12:28;6.20;99.90
7588;DHT22;3835;48.850;8.938;2023-11-21T06:14:56;6.10;99.90
7588;DHT22;3835;48.850;8.938;2023-11-21T06:17:23;6.00;99.90
7588;DHT22;3835;48.850;8.938;2023-11-21T06:19:56;6.00;99.90
7588;DHT22;3835;48.850;8.938;2023-11-21T06:22:23;6.20;99.90
7588;DHT22;3835;48.850;8.938;2023-11-21T06:24:52;6.00;99.90
7588;DHT22;3835;48.850;8.938;2023-11-21T06:27:18;6.00;99.90
7588;DHT22;3835;48.850;8.938;2023-11-21T06:29:52;6.00;99.90
7588;DHT22;3835;48.850;8.938;2023-11-21T06:32:22;6.00;99.90
7588;DHT22;3835;48.850;8.938;2023-11-21T06:34:49;6.00;99.90
7588;DHT22;3835;48.850;8.938;2023-11-21T06:37:19;6.10;99.90
7588;DHT22;3835;48.850;8.938;2023-11-21T06:39:48;6.00;99.90
7588;DHT22;3835;48.850;8.938;2023-11-21T06:42:19;5.90;99.90
7588;DHT22;3835;48.850;8.938;2023-11-21T06:44:46;5.90;99.90
7588;DHT22;3835;48.850;8.938;2023-11-21T06:47:13;5.90;99.90
7588;DHT22;3835;48.850;8.938;2023-11-21T06:49:42;5.90;99.90
7588;DHT22;3835;48.850;8.938;2023-11-21T06:52:09;6.00;99.90
7588;DHT22;3835;48.850;8.938;2023-11-21T06:54:37;6.00;99.90
7588;DHT22;3835;48.850;8.938;2023-11-21T06:57:04;6.00;99.90
7588;DHT22;3835;48.850;8.938;2023-11-21T06:59:32;6.00;99.90
7588;DHT22;3835;48.850;8.938;2023-11-21T07:01:59;6.10;99.90
7588;DHT22;3835;48.850;8.938;2023-11-21T07:04:26;6.20;99.90
7588;DHT22;3835;48.850;8.938;2023-11-21T07:06:53;6.30;99.90
7588;DHT22;3835;48.850;8.938;2023-11-21T07:09:20;6.40;99.90
7588;DHT22;3835;48.850;8.938;2023-11-21T07:11:48;6.40;99.90
7588;DHT22;3835;48.850;8.938;2023-11-21T07:14:14;6.50;99.90
7588;DHT22;3835;48.850;8.938;2023-11-21T07:16:43;6.50;99.90
7588;DHT22;3835;48.850;8.938;2023-11-21T07:19:10;6.70;99.90
7588;DHT22;3835;48.850;8.938;2023-11-21T07:21:38;6.60;99.90
7588;DHT22;3835;48.850;8.938;2023-11-21T07:24:07;6.70;99.90
7588;DHT22;3835;48.850;8.938;2023-11-21T07:26:34;6.80;99.90
7588;DHT22;3835;48.850;8.938;2023-11-21T07:29:01;7.10;99.90
7588;DHT22;3835;48.850;8.938;2023-11-21T07:31:28;7.00;99.90
7588;DHT22;3835;48.850;8.938;2023-11-21T07:33:58;6.90;99.90
7588;DHT22;3835;48.850;8.938;2023-11-21T07:36:25;7.00;99.90
7588;DHT22;3835;48.850;8.938;2023-11-21T07:38:51;7.00;99.90
7588;DHT22;3835;48.850;8.938;2023-11-21T07:41:19;6.90;99.90
7588;DHT22;3835;48.850;8.938;2023-11-21T07:43:46;6.80;99.90
7588;DHT22;3835;48.850;8.938;2023-11-21T07:46:13;6.70;99.90
7588;DHT22;3835;48.850;8.938;2023-11-21T07:48:42;6.70;99.90
7588;DHT22;3835;48.850;8.938;2023-11-21T07:51:10;6.70;99.90
7588;DHT22;3835;48.850;8.938;2023-11-21T07:53:38;6.70;99.90
7588;DHT22;3835;48.850;8.938;2023-11-21T07:56:07;6.70;99.90
7588;DHT22;3835;48.850;8.938;2023-11-21T07:58:34;6.70;99.90
7588;DHT22;3835;48.850;8.938;2023-11-21T08:01:01;6.70;99.90
7588;DHT22;3835;48.850;8.938;2023-11-21T08:03:28;6.80;99.90
7588;DHT22;3835;48.850;8.938;2023-11-21T08:05:56;6.80;99.90
7588;DHT22;3835;48.850;8.938;2023-11-21T08:08:24;6.90;99.90
7588;DHT22;3835;48.850;8.938;2023-11-21T08:10:52;6.90;99.90
7588;DHT22;3835;48.850;8.938;2023-11-21T08:13:22;6.90;99.90
7588;DHT22;3835;48.850;8.938;2023-11-21T08:15:49;7.00;99.90
7588;DHT22;3835;48.850;8.938;2023-11-21T08:18:16;7.10;99.90
7588;DHT22;3835;48.850;8.938;2023-11-21T08:20:43;7.10;99.90
7588;DHT22;3835;48.850;8.938;2023-11-21T08:23:14;7.10;99.90
7588;DHT22;3835;48.850;8.938;2023-11-21T08:25:43;7.20;99.90
7588;DHT22;3835;48.850;8.938;2023-11-21T08:28:10;7.10;99.90
7588;DHT22;3835;48.850;8.938;2023-11-21T08:30:37;7.10;99.90
7588;DHT22;3835;48.850;8.938;2023-11-21T08:33:04;7.00;99.90
7588;DHT22;3835;48.850;8.938;2023-11-21T08:35:31;7.00;99.90
7588;DHT22;3835;48.850;8.938;2023-11-21T08:37:58;7.00;99.90
7588;DHT22;3835;48.850;8.938;2023-11-21T08:40:25;7.00;99.90
7588;DHT22;3835;48.850;8.938;2023-11-21T08:42:53;7.10;99.90
7588;DHT22;3835;48.850;8.938;2023-11-21T08:45:21;7.10;99.90
7588;DHT22;3835;48.850;8.938;2023-11-21T08:47:48;7.10;99.90
7588;DHT22;3835;48.850;8.938;2023-11-21T08:50:16;7.20;99.90
7588;DHT22;3835;48.850;8.938;2023-11-21T08:52:45;7.20;99.90
7588;DHT22;3835;48.850;8.938;2023-11-21T08:55:12;7.30;99.90
7588;DHT22;3835;48.850;8.938;2023-11-21T08:57:40;7.30;99.90
7588;DHT22;3835;48.850;8.938;2023-11-21T09:00:09;7.30;99.90
7588;DHT22;3835;48.850;8.938;2023-11-21T09:02:38;7.40;99.90
7588;DHT22;3835;48.850;8.938;2023-11-21T09:05:07;7.40;99.90
7588;DHT22;3835;48.850;8.938;2023-11-21T09:07:35;7.40;99.90
7588;DHT22;3835;48.850;8.938;2023-11-21T09:10:02;7.50;99.90
7588;DHT22;3835;48.850;8.938;2023-11-21T09:12:29;7.60;99.90
7588;DHT22;3835;48.850;8.938;2023-11-21T09:14:58;7.70;99.90
7588;DHT22;3835;48.850;8.938;2023-11-21T09:17:26;7.70;99.90
7588;DHT22;3835;48.850;8.938;2023-11-21T09:20:01;7.70;99.90
7588;DHT22;3835;48.850;8.938;2023-11-21T09:22:36;7.80;99.90
7588;DHT22;3835;48.850;8.938;2023-11-21T09:25:03;7.90;99.90
7588;DHT22;3835;48.850;8.938;2023-11-21T09:27:31;7.90;99.90
7588;DHT22;3835;48.850;8.938;2023-11-21T09:29:58;7.90;99.90
7588;DHT22;3835;48.850;8.938;2023-11-21T09:32:26;7.90;99.90
7588;DHT22;3835;48.850;8.938;2023-11-21T09:34:53;7.90;99.90
7588;DHT22;3835;48.850;8.938;2023-11-21T09:37:21;7.90;99.90
7588;DHT22;3835;48.850;8.938;2023-11-21T09:39:47;7.90;99.90
7588;DHT22;3835;48.850;8.938;2023-11-21T09:42:17;8.00;99.90
7588;DHT22;3835;48.850;8.938;2023-11-21T09:44:53;8.10;99.90
7588;DHT22;3835;48.850;8.938;2023-11-21T09:47:21;8.00;99.90
7588;DHT22;3835;48.850;8.938;2023-11-21T09:49:54;8.00;99.90
7588;DHT22;3835;48.850;8.938;2023-11-21T09:52:25;8.10;99.90
7588;DHT22;3835;48.850;8.938;2023-11-21T09:54:53;8.10;99.90
7588;DHT22;3835;48.850;8.938;2023-11-21T09:57:20;8.10;99.90
7588;DHT22;3835;48.850;8.938;2023-11-21T09:59:51;8.30;99.90
7588;DHT22;3835;48.850;8.938;2023-11-21T10:02:21;8.40;99.90
7588;DHT22;3835;48.850;8.938;2023-11-21T10:04:53;8.60;99.90
7588;DHT22;3835;48.850;8.938;2023-11-21T10:07:20;8.80;99.90
7588;DHT22;3835;48.850;8.938;2023-11-21T10:09:47;8.80;99.90
7588;DHT22;3835;48.850;8.938;2023-11-21T10:12:15;8.70;99.90
7588;DHT22;3835;48.850;8.938;2023-11-21T10:14:43;8.70;99.90
7588;DHT22;3835;48.850;8.938;2023-11-21T10:17:14;8.60;99.90
7588;DHT22;3835;48.850;8.938;2023-11-21T10:19:46;8.60;99.90
7588;DHT22;3835;48.850;8.938;2023-11-21T10:22:15;8.70;99.90
7588;DHT22;3835;48.850;8.938;2023-11-21T10:24:42;8.80;99.90
7588;DHT22;3835;48.850;8.938;2023-11-21T10:27:10;8.70;99.90
7588;DHT22;3835;48.850;8.938;2023-11-21T10:29:36;8.60;99.90
7588;DHT22;3835;48.850;8.938;2023-11-21T10:32:04;8.80;99.90
7588;DHT22;3835;48.850;8.938;2023-11-21T10:34:32;8.80;99.90
7588;DHT22;3835;48.850;8.938;2023-11-21T10:37:11;8.90;99.90
7588;DHT22;3835;48.850;8.938;2023-11-21T10:39:40;8.70;99.90
7588;DHT22;3835;48.850;8.938;2023-11-21T10:42:09;8.60;99.90
7588;DHT22;3835;48.850;8.938;2023-11-21T10:44:36;8.70;99.90
7588;DHT22;3835;48.850;8.938;2023-11-21T10:47:03;8.70;99.90
7588;DHT22;3835;48.850;8.938;2023-11-21T10:49:30;8.70;99.90
7588;DHT22;3835;48.850;8.938;2023-11-21T10:51:57;8.70;99.90
7588;DHT22;3835;48.850;8.938;2023-11-21T10:54:25;8.60;99.90
7588;DHT22;3835;48.850;8.938;2023-11-21T10:56:58;8.70;99.90
7588;DHT22;3835;48.850;8.938;2023-11-21T10:59:28;8.60;99.90
7588;DHT22;3835;48.850;8.938;2023-11-21T11:01:58;8.80;99.90
7588;DHT22;3835;48.850;8.938;2023-11-21T11:04:27;9.00;99.90
7588;DHT22;3835;48.850;8.938;2023-11-21T11:06:56;8.90;99.90
7588;DHT22;3835;48.850;8.938;2023-11-21T11:09:23;8.80;99.90
7588;DHT22;3835;48.850;8.938;2023-11-21T11:11:51;8.70;99.90
7588;DHT22;3835;48.850;8.938;2023-11-21T11:14:20;8.80;99.90
7588;DHT22;3835;48.850;8.938;2023-11-21T11:16:52;8.50;99.90
7588;DHT22;3835;48.850;8.938;2023-11-21T11:19:21;8.40;99.90
7588;DHT22;3835;48.850;8.938;2023-11-21T11:21:56;8.40;99.90
7588;DHT22;3835;48.850;8.938;2023-11-21T11:24:39;8.30;99.90
7588;DHT22;3835;48.850;8.938;2023-11-21T11:27:14;8.20;99.90
7588;DHT22;3835;48.850;8.938;2023-11-21T11:29:52;8.30;99.90
7588;DHT22;3835;48.850;8.938;2023-11-21T11:32:36;8.50;99.90
7588;DHT22;3835;48.850;8.938;2023-11-21T11:35:11;8.60;99.90
7588;DHT22;3835;48.850;8.938;2023-11-21T11:37:42;8.70;99.90
7588;DHT22;3835;48.850;8.938;2023-11-21T11:40:11;8.80;99.90
7588;DHT22;3835;48.850;8.938;2023-11-21T11:42:38;8.90;99.90
7588;DHT22;3835;48.850;8.938;2023-11-21T11:45:18;9.00;99.90
7588;DHT22;3835;48.850;8.938;2023-11-21T11:47:47;9.00;99.90
7588;DHT22;3835;48.850;8.938;2023-11-21T11:50:15;9.10;99.90
7588;DHT22;3835;48.850;8.938;2023-11-21T11:52:44;9.00;99.90
7588;DHT22;3835;48.850;8.938;2023-11-21T11:55:12;9.00;99.90
7588;DHT22;3835;48.850;8.938;2023-11-21T11:57:40;9.00;99.90
7588;DHT22;3835;48.850;8.938;2023-11-21T12:00:09;8.90;99.90
7588;DHT22;3835;48.850;8.938;2023-11-21T12:02:37;8.70;99.90
7588;DHT22;3835;48.850;8.938;2023-11-21T12:05:09;8.60;99.90
7588;DHT22;3835;48.850;8.938;2023-11-21T12:07:48;8.70;99.90
7588;DHT22;3835;48.850;8.938;2023-11-21T12:10:16;8.80;99.90
7588;DHT22;3835;48.850;8.938;2023-11-21T12:12:46;8.90;99.90
7588;DHT22;3835;48.850;8.938;2023-11-21T12:15:14;9.00;99.90
7588;DHT22;3835;48.850;8.938;2023-11-21T12:17:43;8.90;99.90
7588;DHT22;3835;48.850;8.938;2023-11-21T12:20:11;8.60;99.90
7588;DHT22;3835;48.850;8.938;2023-11-21T12:22:44;9.00;99.90
7588;DHT22;3835;48.850;8.938;2023-11-21T12:25:13;8.90;99.90
7588;DHT22;3835;48.850;8.938;2023-11-21T12:27:43;9.00;99.90
7588;DHT22;3835;48.850;8.938;2023-11-21T12:30:12;9.30;99.90
7588;DHT22;3835;48.850;8.938;2023-11-21T12:32:43;8.90;99.90
7588;DHT22;3835;48.850;8.938;2023-11-21T12:35:11;9.00;99.90
7588;DHT22;3835;48.850;8.938;2023-11-21T12:37:40;9.00;99.90
7588;DHT22;3835;48.850;8.938;2023-11-21T12:40:09;9.30;99.90
7588;DHT22;3835;48.850;8.938;2023-11-21T12:42:38;9.30;99.90
7588;DHT22;3835;48.850;8.938;2023-11-21T12:45:08;9.40;99.90
7588;DHT22;3835;48.850;8.938;2023-11-21T12:47:41;9.40;99.90
7588;DHT22;3835;48.850;8.938;2023-11-21T12:50:09;9.40;99.90
7588;DHT22;3835;48.850;8.938;2023-11-21T12:52:41;9.30;99.90
7588;DHT22;3835;48.850;8.938;2023-11-21T12:55:09;9.20;99.90
7588;DHT22;3835;48.850;8.938;2023-11-21T12:57:41;9.00;99.90
7588;DHT22;3835;48.850;8.938;2023-11-21T13:00:11;8.80;99.90
7588;DHT22;3835;48.850;8.938;2023-11-21T13:02:42;8.70;99.90
7588;DHT22;3835;48.850;8.938;2023-11-21T13:05:10;8.60;99.90
7588;DHT22;3835;48.850;8.938;2023-11-21T13:07:47;8.50;99.90
7588;DHT22;3835;48.850;8.938;2023-11-21T13:10:16;8.40;99.90
7588;DHT22;3835;48.850;8.938;2023-11-21T13:12:44;8.40;99.90
7588;DHT22;3835;48.850;8.938;2023-11-21T13:15:14;8.40;99.90
7588;DHT22;3835;48.850;8.938;2023-11-21T13:17:44;8.30;99.90
7588;DHT22;3835;48.850;8.938;2023-11-21T13:20:11;8.30;99.90
7588;DHT22;3835;48.850;8.938;2023-11-21T13:22:46;8.20;99.90
7588;DHT22;3835;48.850;8.938;2023-11-21T13:25:14;8.20;99.90
7588;DHT22;3835;48.850;8.938;2023-11-21T13:27:43;8.20;99.90
7588;DHT22;3835;48.850;8.938;2023-11-21T13:30:12;8.20;99.90
7588;DHT22;3835;48.850;8.938;2023-11-21T13:32:40;8.20;99.90
7588;DHT22;3835;48.850;8.938;2023-11-21T13:35:09;8.20;99.90
7588;DHT22;3835;48.850;8.938;2023-11-21T13:37:47;8.20;99.90
7588;DHT22;3835;48.850;8.938;2023-11-21T13:40:15;8.20;99.90
7588;DHT22;3835;48.850;8.938;2023-11-21T13:42:48;8.30;99.90
7588;DHT22;3835;48.850;8.938;2023-11-21T13:45:19;8.30;99.90
7588;DHT22;3835;48.850;8.938;2023-11-21T13:47:47;8.30;99.90
7588;DHT22;3835;48.850;8.938;2023-11-21T13:50:18;8.40;99.90
7588;DHT22;3835;48.850;8.938;2023-11-21T13:52:48;8.40;99.90
7588;DHT22;3835;48.850;8.938;2023-11-21T13:55:17;8.40;99.90
7588;DHT22;3835;48.850;8.938;2023-11-21T13:57:44;8.40;99.90
7588;DHT22;3835;48.850;8.938;2023-11-21T14:00:15;8.40;99.90
7588;DHT22;3835;48.850;8.938;2023-11-21T14:03:06;8.50;99.90
7588;DHT22;3835;48.850;8.938;2023-11-21T14:05:43;8.50;99.90
7588;DHT22;3835;48.850;8.938;2023-11-21T14:08:11;8.50;99.90
7588;DHT22;3835;48.850;8.938;2023-11-21T14:10:42;8.40;99.90
7588;DHT22;3835;48.850;8.938;2023-11-21T14:13:11;8.30;99.90
7588;DHT22;3835;48.850;8.938;2023-11-21T14:15:39;8.20;99.90
7588;DHT22;3835;48.850;8.938;2023-11-21T14:18:09;8.10;99.90
7588;DHT22;3835;48.850;8.938;2023-11-21T14:20:38;8.10;99.90
7588;DHT22;3835;48.850;8.938;2023-11-21T14:23:07;8.00;99.90
7588;DHT22;3835;48.850;8.938;2023-11-21T14:25:34;8.10;99.90
7588;DHT22;3835;48.850;8.938;2023-11-21T14:28:02;8.00;99.90
7588;DHT22;3835;48.850;8.938;2023-11-21T14:30:30;8.00;99.90
7588;DHT22;3835;48.850;8.938;2023-11-21T14:32:58;7.90;99.90
7588;DHT22;3835;48.850;8.938;2023-11-21T14:35:26;7.90;99.90
7588;DHT22;3835;48.850;8.938;2023-11-21T14:37:55;7.90;99.90
7588;DHT22;3835;48.850;8.938;2023-11-21T14:40:25;7.90;99.90
7588;DHT22;3835;48.850;8.938;2023-11-21T14:42:52;7.90;99.90
7588;DHT22;3835;48.850;8.938;2023-11-21T14:45:22;7.80;99.90
7588;DHT22;3835;48.850;8.938;2023-11-21T14:47:51;7.80;99.90
7588;DHT22;3835;48.850;8.938;2023-11-21T14:50:28;7.80;99.90
7588;DHT22;3835;48.850;8.938;2023-11-21T14:53:35;7.70;99.90
7588;DHT22;3835;48.850;8.938;2023-11-21T14:56:10;7.70;99.90
7588;DHT22;3835;48.850;8.938;2023-11-21T14:58:36;7.60;99.90
7588;DHT22;3835;48.850;8.938;2023-11-21T15:01:05;7.60;99.90
7588;DHT22;3835;48.850;8.938;2023-11-21T15:03:31;7.60;99.90
7588;DHT22;3835;48.850;8.938;2023-11-21T15:06:10;7.60;99.90
7588;DHT22;3835;48.850;8.938;2023-11-21T15:08:49;7.60;99.90
7588;DHT22;3835;48.850;8.938;2023-11-21T15:11:24;7.60;99.90
7588;DHT22;3835;48.850;8.938;2023-11-21T15:13:56;7.60;99.90
7588;DHT22;3835;48.850;8.938;2023-11-21T15:16:23;7.60;99.90
7588;DHT22;3835;48.850;8.938;2023-11-21T15:18:51;7.60;99.90
7588;DHT22;3835;48.850;8.938;2023-11-21T15:21:18;7.60;99.90
7588;DHT22;3835;48.850;8.938;2023-11-21T15:23:47;7.60;99.90
7588;DHT22;3835;48.850;8.938;2023-11-21T15:26:14;7.60;99.90
7588;DHT22;3835;48.850;8.938;2023-11-21T15:28:42;7.60;99.90
7588;DHT22;3835;48.850;8.938;2023-11-21T15:31:09;7.60;99.90
7588;DHT22;3835;48.850;8.938;2023-11-21T15:33:36;7.60;99.90
7588;DHT22;3835;48.850;8.938;2023-11-21T15:36:04;7.60;99.90
7588;DHT22;3835;48.850;8.938;2023-11-21T15:38:35;7.60;99.90
7588;DHT22;3835;48.850;8.938;2023-11-21T15:41:02;7.60;99.90
7588;DHT22;3835;48.850;8.938;2023-11-21T15:43:30;7.60;99.90
7588;DHT22;3835;48.850;8.938;2023-11-21T15:45:59;7.50;99.90
7588;DHT22;3835;48.850;8.938;2023-11-21T15:48:27;7.50;99.90
7588;DHT22;3835;48.850;8.938;2023-11-21T15:50:56;7.60;99.90
7588;DHT22;3835;48.850;8.938;2023-11-21T15:53:23;8.10;99.90
7588;DHT22;3835;48.850;8.938;2023-11-21T15:55:50;7.50;99.90
7588;DHT22;3835;48.850;8.938;2023-11-21T15:58:16;7.50;99.90
7588;DHT22;3835;48.850;8.938;2023-11-21T16:00:43;7.50;99.90
7588;DHT22;3835;48.850;8.938;2023-11-21T16:03:11;7.50;99.90
7588;DHT22;3835;48.850;8.938;2023-11-21T16:05:40;7.50;99.90
7588;DHT22;3835;48.850;8.938;2023-11-21T16:08:06;7.50;99.90
7588;DHT22;3835;48.850;8.938;2023-11-21T16:10:33;7.40;99.90
7588;DHT22;3835;48.850;8.938;2023-11-21T16:13:01;7.40;99.90
7588;DHT22;3835;48.850;8.938;2023-11-21T16:15:28;7.30;99.90
7588;DHT22;3835;48.850;8.938;2023-11-21T16:17:55;7.30;99.90
7588;DHT22;3835;48.850;8.938;2023-11-21T16:20:24;7.20;99.90
7588;DHT22;3835;48.850;8.938;2023-11-21T16:22:51;7.20;99.90
7588;DHT22;3835;48.850;8.938;2023-11-21T16:25:19;7.20;99.90